Time;durP1;ratioP1;P1;durP2;ratioP2;P2;SDS_P1;SDS_P2;PMS_P1;PMS_P2;Temp;Humidity;BMP_temperature;BMP_pressure;BME280_temperature;BME280_humidity;BME280_pressure;Samples;Min_cycle;Max_cycle;Signal;HPM_P1;HPM_P2
2022/03/11 00:00:45;;;;;;;9.35;4.22;;;;;;;-0.04;36.62;101570.09;4408422;32;33772;-63
2022/03/11 00:03:13;;;;;;;10.60;4.62;;;;;;;0.31;36.38;101563.03;4408356;32;33928;-64
2022/03/11 00:05:41;;;;;;;10.90;4.75;;;;;;;0.02;36.33;101567.34;4407099;32;32925;-63
2022/03/11 00:08:09;;;;;;;12.05;4.68;;;;;;;-0.17;36.80;101573.56;4407462;32;33243;-64
2022/03/11 00:10:38;;;;;;;9.13;4.53;;;;;;;0.15;36.49;101565.44;4408596;32;34514;-63
2022/03/11 00:13:05;;;;;;;9.90;4.43;;;;;;;-0.03;36.53;101563.34;4408563;32;33884;-65
2022/03/11 00:15:33;;;;;;;9.38;4.30;;;;;;;-0.06;36.66;101565.53;4407724;32;33649;-63
2022/03/11 00:18:01;;;;;;;11.00;4.30;;;;;;;0.18;36.38;101570.00;4408078;32;33516;-64
2022/03/11 00:20:28;;;;;;;9.60;4.30;;;;;;;0.27;35.87;101560.88;4407790;32;34023;-64
2022/03/11 00:22:57;;;;;;;11.68;4.72;;;;;;;0.30;35.94;101570.50;4408191;32;33659;-64
2022/03/11 00:25:25;;;;;;;11.35;4.68;;;;;;;0.32;36.08;101563.91;4408271;32;33841;-64
2022/03/11 00:27:52;;;;;;;8.80;3.75;;;;;;;0.11;36.30;101563.28;4408348;32;32034;-64
2022/03/11 00:30:20;;;;;;;10.10;4.47;;;;;;;-0.11;36.65;101551.38;4408654;32;34627;-63
2022/03/11 00:32:48;;;;;;;8.35;4.28;;;;;;;0.35;36.02;101559.19;4407869;32;33818;-64
2022/03/11 00:35:15;;;;;;;10.30;4.87;;;;;;;-0.09;36.64;101566.09;4393751;32;32207;-62
2022/03/11 00:37:42;;;;;;;9.35;4.20;;;;;;;-0.10;36.88;101555.72;4407173;32;34076;-63
2022/03/11 00:40:13;;;;;;;10.90;4.55;;;;;;;-0.31;37.27;101557.62;4394350;32;33732;-64
2022/03/11 00:42:40;;;;;;;11.50;4.95;;;;;;;-0.26;36.98;101558.16;4408451;32;33794;-63
2022/03/11 00:45:08;;;;;;;8.93;4.18;;;;;;;-0.10;36.72;101553.19;4408344;32;33799;-63
2022/03/11 00:47:36;;;;;;;8.88;4.45;;;;;;;-0.16;36.63;101555.03;4407525;32;34181;-64
2022/03/11 00:50:04;;;;;;;9.63;4.43;;;;;;;0.12;36.22;101554.91;4405774;32;34548;-64
2022/03/11 00:52:32;;;;;;;8.55;3.97;;;;;;;-0.04;36.26;101546.25;4406133;32;33733;-64
2022/03/11 00:55:02;;;;;;;9.38;4.50;;;;;;;0.05;36.34;101556.59;4392307;32;33584;-65
2022/03/11 00:57:30;;;;;;;10.30;4.25;;;;;;;0.12;35.99;101560.00;4401992;32;33894;-63
2022/03/11 00:59:57;;;;;;;8.63;4.35;;;;;;;-0.10;36.19;101546.44;4406129;32;34744;-65
2022/03/11 01:02:25;;;;;;;9.57;4.37;;;;;;;0.18;35.83;101550.50;4405723;32;32653;-64
2022/03/11 01:04:52;;;;;;;9.52;4.50;;;;;;;0.15;35.93;101547.59;4405535;32;33724;-65
2022/03/11 01:07:20;;;;;;;11.05;4.70;;;;;;;0.22;35.98;101550.88;4405651;32;34941;-64
2022/03/11 01:09:48;;;;;;;9.40;4.30;;;;;;;0.03;36.39;101550.41;4404134;32;33882;-64
2022/03/11 01:12:15;;;;;;;10.55;4.70;;;;;;;0.07;35.95;101550.94;4405971;32;33546;-64
2022/03/11 01:14:42;;;;;;;10.50;4.72;;;;;;;-0.07;36.66;101548.44;4400760;32;33667;-63
2022/03/11 01:17:12;;;;;;;10.73;4.62;;;;;;;-0.09;36.46;101547.38;4405647;32;33224;-63
2022/03/11 01:19:40;;;;;;;12.32;5.37;;;;;;;0.21;36.13;101554.12;4407640;32;33871;-64
2022/03/11 01:22:07;;;;;;;8.85;4.62;;;;;;;0.28;36.19;101554.12;4393089;32;34019;-65
2022/03/11 01:24:36;;;;;;;8.80;4.47;;;;;;;0.19;36.24;101547.25;4407291;32;34065;-64
2022/03/11 01:27:03;;;;;;;11.52;4.45;;;;;;;-0.22;37.00;101553.59;4406869;32;33410;-64
2022/03/11 01:29:31;;;;;;;12.57;4.82;;;;;;;0.12;36.09;101554.91;4412721;32;33468;-64
2022/03/11 01:31:59;;;;;;;9.55;4.15;;;;;;;0.24;35.86;101559.59;4394143;32;32304;-64
2022/03/11 01:34:26;;;;;;;10.90;4.43;;;;;;;0.17;35.94;101564.00;4406629;32;33854;-63
2022/03/11 01:36:54;;;;;;;10.13;4.35;;;;;;;0.03;36.12;101555.50;4388913;32;34190;-63
2022/03/11 01:39:21;;;;;;;11.05;4.62;;;;;;;0.13;36.10;101556.72;4406964;32;33758;-64
2022/03/11 01:41:49;;;;;;;12.70;3.70;;;;;;;-0.01;36.38;101546.59;4407262;32;32370;-64
2022/03/11 01:44:19;;;;;;;7.95;3.80;;;;;;;0.30;35.96;101529.72;4407763;32;33715;-63
2022/03/11 01:46:47;;;;;;;10.38;4.12;;;;;;;0.04;36.03;101537.84;4407047;32;33520;-64
2022/03/11 01:49:14;;;;;;;9.93;5.10;;;;;;;-0.02;36.25;101545.69;4406524;32;33824;-64
2022/03/11 01:51:43;;;;;;;9.48;4.57;;;;;;;-0.14;36.41;101551.91;4393018;32;33947;-63
2022/03/11 01:54:11;;;;;;;10.45;4.20;;;;;;;-0.16;36.18;101539.75;4404560;32;34811;-64
2022/03/11 01:56:39;;;;;;;10.40;3.70;;;;;;;-0.49;37.03;101548.75;4406285;32;33384;-64
2022/03/11 01:59:08;;;;;;;9.73;4.60;;;;;;;0.06;36.17;101549.13;4407722;32;34550;-64
2022/03/11 02:01:37;;;;;;;9.07;4.33;;;;;;;-0.17;36.29;101537.91;4419075;27;34642;31
2022/03/11 02:04:05;;;;;;;9.65;4.60;;;;;;;-0.05;36.15;101544.44;4352002;32;33747;-82
2022/03/11 02:06:33;;;;;;;11.07;4.53;;;;;;;-0.05;36.09;101547.88;4363414;27;34178;-63
2022/03/11 02:09:01;;;;;;;9.73;4.22;;;;;;;0.24;35.66;101549.41;4376431;32;33495;-64
2022/03/11 02:11:29;;;;;;;10.40;4.28;;;;;;;0.49;35.07;101543.78;4376566;32;33804;-64
2022/03/11 02:13:59;;;;;;;9.98;4.50;;;;;;;-0.06;35.94;101550.25;4377319;32;33654;-63
2022/03/11 02:16:29;;;;;;;7.32;3.90;;;;;;;-0.04;36.12;101546.25;4377050;32;33295;-64
2022/03/11 02:18:58;;;;;;;10.90;4.20;;;;;;;0.28;35.72;101536.28;4376871;32;33035;-64
2022/03/11 02:21:29;;;;;;;9.73;4.75;;;;;;;0.13;35.88;101549.06;4375775;32;33673;-63
2022/03/11 02:23:59;;;;;;;9.85;4.25;;;;;;;0.02;35.98;101552.06;4376651;32;34611;-63
2022/03/11 02:26:29;;;;;;;9.73;4.32;;;;;;;0.16;35.77;101557.09;4376698;32;34210;-65
2022/03/11 02:28:58;;;;;;;9.57;4.62;;;;;;;0.04;35.77;101555.69;4376147;32;34032;-63
2022/03/11 02:31:27;;;;;;;7.87;4.03;;;;;;;0.29;35.32;101556.84;4375659;32;33726;-63
2022/03/11 02:33:56;;;;;;;10.75;4.32;;;;;;;0.08;35.25;101560.41;4375821;32;34049;-65
2022/03/11 02:36:23;;;;;;;10.63;4.80;;;;;;;0.46;34.83;101547.62;4374924;32;34185;-63
2022/03/11 02:38:51;;;;;;;12.70;4.68;;;;;;;-0.07;35.96;101545.91;4374359;32;33573;-64
2022/03/11 02:41:19;;;;;;;10.07;4.95;;;;;;;0.11;35.82;101555.63;4376496;32;33907;-64
2022/03/11 02:43:47;;;;;;;9.27;4.30;;;;;;;0.35;35.52;101554.97;4376307;32;34005;-63
2022/03/11 02:46:15;;;;;;;10.00;4.50;;;;;;;0.59;35.13;101551.72;4376114;32;33597;-63
2022/03/11 02:48:42;;;;;;;10.18;5.00;;;;;;;0.82;34.66;101549.94;4369668;32;34054;-64
2022/03/11 02:51:09;;;;;;;11.50;4.60;;;;;;;1.21;33.94;101535.56;4375461;32;32808;-63
2022/03/11 02:53:40;;;;;;;9.98;4.00;;;;;;;0.43;35.24;101548.19;4374697;32;33889;-63
2022/03/11 02:56:09;;;;;;;10.73;4.65;;;;;;;0.72;34.69;101548.91;4375058;32;33912;-62
2022/03/11 02:58:40;;;;;;;8.95;4.32;;;;;;;0.06;35.50;101544.03;4370386;32;33884;-65
2022/03/11 03:01:09;;;;;;;10.27;4.90;;;;;;;0.25;35.51;101553.75;4373195;32;34076;-64
2022/03/11 03:03:37;;;;;;;9.20;4.20;;;;;;;0.27;36.07;101552.28;4375251;32;34547;-63
2022/03/11 03:06:07;;;;;;;10.38;4.43;;;;;;;0.43;35.57;101550.75;4364703;32;32779;-65
2022/03/11 03:08:35;;;;;;;10.45;4.70;;;;;;;0.34;35.44;101542.06;4378359;32;34551;-63
2022/03/11 03:11:02;;;;;;;8.88;4.37;;;;;;;0.29;35.55;101553.38;4376983;32;33709;-65
2022/03/11 03:13:30;;;;;;;9.43;5.20;;;;;;;0.46;35.77;101553.62;4362996;32;32379;-64
2022/03/11 03:15:57;;;;;;;10.30;4.45;;;;;;;0.33;36.36;101558.09;4376493;32;33445;-66
2022/03/11 03:18:25;;;;;;;11.68;5.25;;;;;;;0.08;36.40;101551.81;4376768;32;33943;-64
2022/03/11 03:20:52;;;;;;;15.77;5.90;;;;;;;0.19;35.95;101547.25;4375318;32;34695;-63
2022/03/11 03:23:20;;;;;;;12.23;5.40;;;;;;;0.62;35.42;101546.09;4375693;32;34420;-64
2022/03/11 03:25:47;;;;;;;10.02;4.85;;;;;;;0.30;35.76;101552.66;4362062;32;34202;-63
2022/03/11 03:28:15;;;;;;;10.13;4.35;;;;;;;0.21;35.94;101549.03;4377923;32;34753;-65
2022/03/11 03:30:42;;;;;;;7.90;3.95;;;;;;;0.22;35.81;101543.22;4377606;32;34616;-65
2022/03/11 03:33:11;;;;;;;8.93;3.90;;;;;;;0.03;36.20;101546.22;4377294;32;34067;-65
2022/03/11 03:35:39;;;;;;;7.43;4.15;;;;;;;-0.20;36.44;101543.56;4377658;32;33798;-65
2022/03/11 03:38:06;;;;;;;9.50;4.40;;;;;;;0.24;35.73;101540.12;4377882;32;34237;-63
2022/03/11 03:40:34;;;;;;;11.07;5.15;;;;;;;-0.11;36.21;101537.00;4378492;32;33906;-65
2022/03/11 03:43:01;;;;;;;10.85;4.60;;;;;;;0.23;35.43;101537.38;4378580;32;32336;-64
2022/03/11 03:45:31;;;;;;;8.95;4.30;;;;;;;-1.16;38.12;101546.81;4378097;32;34265;-63
2022/03/11 03:48:01;;;;;;;12.65;5.05;;;;;;;-1.54;39.80;101553.31;4378508;32;33598;-64
2022/03/11 03:50:29;;;;;;;12.50;5.10;;;;;;;-0.81;39.14;101552.63;4378156;32;34249;-64
2022/03/11 03:52:56;;;;;;;11.52;5.35;;;;;;;-0.52;38.94;101550.03;4378423;32;34680;-64
2022/03/11 03:55:24;;;;;;;10.40;5.47;;;;;;;-0.29;38.53;101546.00;4378207;32;34182;-64
2022/03/11 03:57:51;;;;;;;9.95;4.90;;;;;;;-0.32;38.11;101532.88;4378812;32;33930;-64
2022/03/11 04:00:19;;;;;;;10.45;4.53;;;;;;;0.07;36.86;101545.81;4377336;32;33976;-63
2022/03/11 04:02:48;;;;;;;11.32;5.30;;;;;;;0.13;36.68;101551.63;4377309;32;33654;-64
2022/03/11 04:05:17;;;;;;;11.88;5.10;;;;;;;0.15;36.20;101555.25;4376130;32;33659;-63
2022/03/11 04:07:46;;;;;;;10.93;5.10;;;;;;;-0.71;38.26;101557.16;4354294;32;33117;-65
2022/03/11 04:10:15;;;;;;;12.18;5.57;;;;;;;-0.71;38.80;101569.91;4371265;32;34046;-63
2022/03/11 04:12:42;;;;;;;11.85;5.43;;;;;;;-0.29;38.11;101568.91;4375475;32;33625;-63
2022/03/11 04:15:11;;;;;;;11.93;5.45;;;;;;;-0.16;37.46;101557.56;4377681;32;34046;-65
2022/03/11 04:17:39;;;;;;;11.98;5.18;;;;;;;-0.10;37.17;101555.72;4376384;32;33916;-63
2022/03/11 04:20:08;;;;;;;9.10;4.65;;;;;;;-0.15;36.76;101561.97;4376170;32;32385;-63
2022/03/11 04:22:40;;;;;;;12.55;5.68;;;;;;;-0.64;37.76;101568.25;4377067;32;34040;-64
2022/03/11 04:25:13;;;;;;;13.68;6.00;;;;;;;-1.06;39.33;101580.25;4375332;32;33594;-63
2022/03/11 04:27:41;;;;;;;10.30;4.90;;;;;;;-0.60;38.64;101575.50;4377967;32;33573;-64
2022/03/11 04:30:09;;;;;;;13.10;5.40;;;;;;;-0.47;38.40;101571.84;4377381;32;34088;-64
2022/03/11 04:32:37;;;;;;;11.07;5.70;;;;;;;-0.74;39.02;101572.97;4384747;32;33678;-65
2022/03/11 04:35:05;;;;;;;14.52;5.70;;;;;;;-0.49;38.26;101578.41;4360538;32;33440;-64
2022/03/11 04:37:32;;;;;;;9.77;5.15;;;;;;;-1.58;41.11;101584.16;4377118;32;33498;-63
2022/03/11 04:40:00;;;;;;;8.93;5.15;;;;;;;-1.90;41.48;101578.59;4377996;32;33929;-63
2022/03/11 04:42:28;;;;;;;12.48;5.95;;;;;;;-1.99;42.55;101567.31;4377188;32;33896;-63
2022/03/11 04:44:56;;;;;;;12.70;4.87;;;;;;;-1.85;42.41;101581.72;4377934;32;32990;-65
2022/03/11 04:47:23;;;;;;;12.35;5.10;;;;;;;-2.21;42.86;101584.09;4377685;32;33702;-64
2022/03/11 04:49:53;;;;;;;13.45;5.72;;;;;;;-2.12;43.21;101589.41;4376324;32;34463;-64
2022/03/11 04:52:21;;;;;;;11.02;5.03;;;;;;;-1.89;42.40;101595.69;4376003;32;32437;-62
2022/03/11 04:54:49;;;;;;;10.43;5.05;;;;;;;-2.04;43.31;101601.41;4377398;32;33477;-65
2022/03/11 04:57:17;;;;;;;12.63;5.47;;;;;;;-2.25;42.99;101597.13;4377428;32;34750;-64
2022/03/11 04:59:45;;;;;;;12.32;5.07;;;;;;;-1.52;41.76;101595.06;4376931;32;33933;-65
2022/03/11 05:02:12;;;;;;;9.80;5.12;;;;;;;-1.15;40.63;101594.41;4376714;32;33633;-66
2022/03/11 05:04:40;;;;;;;10.80;5.35;;;;;;;-1.76;43.02;101589.53;4375691;32;33605;-65
2022/03/11 05:07:08;;;;;;;12.07;5.62;;;;;;;-1.51;42.43;101596.88;4376272;32;34589;-65
2022/03/11 05:09:36;;;;;;;18.90;8.98;;;;;;;-2.27;44.43;101599.47;4375214;32;34718;-64
2022/03/11 05:12:04;;;;;;;21.73;8.75;;;;;;;-3.24;47.19;101604.16;4376152;32;34063;-64
2022/03/11 05:14:32;;;;;;;23.33;9.40;;;;;;;-3.42;47.70;101610.28;4377674;32;35386;-65
2022/03/11 05:17:00;;;;;;;29.90;12.13;;;;;;;-3.42;47.64;101613.75;4377032;32;33628;-66
2022/03/11 05:19:28;;;;;;;20.73;9.60;;;;;;;-3.81;48.78;101610.41;4379492;32;32579;-66
2022/03/11 05:21:56;;;;;;;18.70;8.00;;;;;;;-3.85;49.46;101613.25;4375760;32;33214;-64
2022/03/11 05:24:24;;;;;;;20.55;8.77;;;;;;;-3.74;49.29;101616.28;4376733;32;33347;-65
2022/03/11 05:26:56;;;;;;;18.17;7.68;;;;;;;-3.56;48.04;101613.59;4377791;32;34588;-64
2022/03/11 05:29:24;;;;;;;17.65;8.15;;;;;;;-3.73;48.76;101613.03;4374289;32;34623;-64
2022/03/11 05:31:51;;;;;;;17.25;7.35;;;;;;;-3.72;48.86;101614.88;4372344;32;33565;-66
2022/03/11 05:34:19;;;;;;;22.70;9.07;;;;;;;-3.56;48.49;101611.94;4376408;32;34172;-65
2022/03/11 05:36:46;;;;;;;22.13;9.88;;;;;;;-3.60;49.10;101616.44;4363497;32;33341;-65
2022/03/11 05:39:15;;;;;;;21.23;9.68;;;;;;;-3.56;48.65;101613.59;4376178;32;33821;-65
2022/03/11 05:41:44;;;;;;;19.83;8.52;;;;;;;-4.02;50.24;101620.25;4366341;32;33946;-64
2022/03/11 05:44:12;;;;;;;21.35;9.45;;;;;;;-4.36;51.15;101634.44;4377867;32;34118;-65
2022/03/11 05:46:40;;;;;;;22.05;9.30;;;;;;;-4.19;51.17;101634.16;4378189;32;33583;-64
2022/03/11 05:49:08;;;;;;;17.30;8.60;;;;;;;-4.18;51.85;101635.97;4377416;32;33599;-64
2022/03/11 05:51:35;;;;;;;19.23;8.32;;;;;;;-3.84;50.50;101637.88;4377508;32;34532;-65
2022/03/11 05:54:03;;;;;;;20.20;8.63;;;;;;;-3.82;50.97;101643.13;4378112;32;31801;-66
2022/03/11 05:56:32;;;;;;;18.27;8.75;;;;;;;-3.68;50.87;101632.28;4377689;32;33861;-62
2022/03/11 05:59:00;;;;;;;21.05;8.23;;;;;;;-3.08;48.51;101632.38;4378414;32;34010;-66
2022/03/11 06:01:28;;;;;;;18.45;6.90;;;;;;;-2.82;47.67;101635.66;4377253;32;34887;-66
2022/03/11 06:03:57;;;;;;;16.25;6.72;;;;;;;-1.92;45.46;101630.84;4377902;32;33582;-64
2022/03/11 06:06:25;;;;;;;16.12;7.15;;;;;;;-1.59;44.56;101633.16;4379040;32;33735;-64
2022/03/11 06:08:53;;;;;;;15.32;6.90;;;;;;;-1.49;44.16;101651.34;4377214;32;34384;-64
2022/03/11 06:11:23;;;;;;;21.52;7.68;;;;;;;-1.21;43.42;101644.53;4377009;32;34794;-65
2022/03/11 06:13:50;;;;;;;20.73;8.50;;;;;;;-1.15;43.41;101654.53;4377816;32;33143;-64
2022/03/11 06:16:18;;;;;;;17.52;7.43;;;;;;;-1.52;43.70;101650.97;4377444;32;34640;-65
2022/03/11 06:18:46;;;;;;;14.90;6.82;;;;;;;-1.22;42.73;101657.97;4377430;32;34734;-64
2022/03/11 06:21:13;;;;;;;18.15;7.18;;;;;;;-0.72;42.32;101645.31;4376066;32;34498;-65
2022/03/11 06:23:41;;;;;;;18.45;7.10;;;;;;;-0.60;41.23;101646.78;4376747;32;34159;-65
2022/03/11 06:26:09;;;;;;;16.87;7.68;;;;;;;-0.60;40.54;101656.97;4377857;32;33929;-64
2022/03/11 06:28:36;;;;;;;12.63;5.05;;;;;;;-0.22;39.93;101646.91;4378360;32;34461;-66
2022/03/11 06:31:04;;;;;;;12.60;5.22;;;;;;;-0.26;39.09;101650.72;4378638;32;33892;-65
2022/03/11 06:33:31;;;;;;;14.63;5.37;;;;;;;-0.06;38.77;101645.44;4378518;32;33391;-65
2022/03/11 06:35:59;;;;;;;11.77;5.78;;;;;;;-0.18;38.92;101650.72;4377293;32;33933;-67
2022/03/11 06:38:26;;;;;;;18.33;8.85;;;;;;;-0.37;39.28;101648.56;4373751;32;33823;-65
2022/03/11 06:40:57;;;;;;;16.73;5.93;;;;;;;-0.27;39.15;101658.19;4373687;32;34409;-63
2022/03/11 06:43:25;;;;;;;13.95;6.18;;;;;;;0.24;38.11;101659.00;4368082;32;31878;-65
2022/03/11 06:45:52;;;;;;;18.33;7.15;;;;;;;-0.08;38.43;101651.06;4377547;32;34725;-64
2022/03/11 06:48:21;;;;;;;36.42;12.63;;;;;;;0.02;38.10;101653.03;4380831;32;34638;-66
2022/03/11 06:50:48;;;;;;;19.10;7.00;;;;;;;-0.14;38.43;101655.44;4377587;32;33823;-65
2022/03/11 06:53:17;;;;;;;21.08;8.38;;;;;;;0.04;37.98;101657.59;4377291;32;34526;-63
2022/03/11 06:55:45;;;;;;;17.23;6.45;;;;;;;-0.17;38.28;101660.16;4376853;32;33977;-62
2022/03/11 06:58:12;;;;;;;15.57;5.62;;;;;;;-0.65;38.33;101663.13;4377794;32;34583;-64
2022/03/11 07:00:40;;;;;;;10.52;5.50;;;;;;;-0.43;38.05;101664.03;4377989;32;34565;-65
2022/03/11 07:03:08;;;;;;;13.00;4.90;;;;;;;0.15;37.06;101662.28;4377793;32;33445;-63
2022/03/11 07:05:36;;;;;;;13.30;5.72;;;;;;;0.05;36.92;101661.94;4375935;32;33939;-65
2022/03/11 07:08:04;;;;;;;10.20;4.80;;;;;;;0.12;36.99;101661.94;4377919;32;33891;-65
2022/03/11 07:10:32;;;;;;;13.10;5.22;;;;;;;0.45;36.45;101658.00;4364942;32;34058;-65
2022/03/11 07:12:59;;;;;;;13.43;5.28;;;;;;;0.67;35.83;101661.34;4378187;32;34228;-64
2022/03/11 07:15:26;;;;;;;8.85;4.75;;;;;;;0.68;35.38;101660.63;4376710;32;33981;-65
2022/03/11 07:17:54;;;;;;;9.48;4.60;;;;;;;0.51;35.35;101664.72;4377731;32;33635;-64
2022/03/11 07:20:22;;;;;;;10.07;4.20;;;;;;;0.32;35.42;101661.69;4376180;32;34623;-65
2022/03/11 07:23:09;;;;;;;10.60;3.95;;;;;;;0.29;34.71;101655.31;4379376;32;34231;-65
2022/03/11 07:25:37;;;;;;;10.35;4.45;;;;;;;0.17;34.83;101665.94;4378206;32;34361;-66
2022/03/11 07:28:05;;;;;;;9.70;4.28;;;;;;;-0.08;35.83;101663.81;4364630;32;33360;-64
2022/03/11 07:30:32;;;;;;;8.63;3.72;;;;;;;-0.04;35.57;101665.97;4363501;32;32334;-65
2022/03/11 07:33:01;;;;;;;9.63;3.95;;;;;;;0.50;34.80;101667.06;4363376;32;34153;-64
2022/03/11 07:35:28;;;;;;;9.25;4.37;;;;;;;0.64;34.52;101666.09;4377929;32;33897;-63
2022/03/11 07:37:56;;;;;;;9.65;4.32;;;;;;;0.21;35.16;101667.19;4377367;32;34026;-65
2022/03/11 07:40:23;;;;;;;9.07;4.03;;;;;;;0.50;34.38;101665.47;4378093;32;33983;-64
2022/03/11 07:42:51;;;;;;;11.65;4.45;;;;;;;0.97;33.96;101664.81;4377107;32;33336;-64
2022/03/11 07:45:19;;;;;;;9.10;4.25;;;;;;;0.95;33.98;101665.41;4378153;32;33805;-65
2022/03/11 07:47:46;;;;;;;10.15;4.78;;;;;;;0.95;34.17;101665.41;4378066;32;33781;-65
2022/03/11 07:50:14;;;;;;;11.10;4.55;;;;;;;1.08;33.75;101671.16;4376803;32;33165;-64
2022/03/11 07:52:42;;;;;;;13.35;4.62;;;;;;;1.37;33.36;101669.28;4376595;32;34377;-64
2022/03/11 07:55:10;;;;;;;10.52;5.00;;;;;;;1.25;33.16;101673.00;4377581;32;34747;-63
2022/03/11 07:57:39;;;;;;;12.00;5.40;;;;;;;0.82;33.60;101667.28;4363550;32;34826;-64
2022/03/11 08:00:08;;;;;;;9.20;4.50;;;;;;;0.83;33.86;101667.47;4378371;32;34301;-63
2022/03/11 08:02:39;;;;;;;15.38;5.95;;;;;;;1.33;33.38;101671.31;4376244;32;32885;-64
2022/03/11 08:05:14;;;;;;;13.50;5.03;;;;;;;1.50;33.08;101668.06;4362628;32;33902;-62
2022/03/11 08:07:44;;;;;;;;;;;;;;;1.52;33.21;101670.06;4377818;32;33610;-64
2022/03/11 08:10:11;;;;;;;9.68;4.85;;;;;;;1.56;32.77;101678.97;4378299;32;34762;-64
2022/03/11 08:12:40;;;;;;;10.32;4.80;;;;;;;0.97;33.23;101677.59;4377628;32;34113;-65
2022/03/11 08:15:11;;;;;;;11.65;5.60;;;;;;;1.51;32.68;101677.56;4376341;32;32502;-64
2022/03/11 08:17:40;;;;;;;10.43;4.95;;;;;;;1.41;33.06;101669.59;4376673;32;33769;-63
2022/03/11 08:20:09;;;;;;;11.23;4.87;;;;;;;1.30;33.09;101666.78;4376122;32;34279;-64
2022/03/11 08:22:37;;;;;;;11.25;5.45;;;;;;;1.45;32.96;101669.19;4377875;32;33445;-65
2022/03/11 08:25:08;;;;;;;10.48;4.40;;;;;;;1.94;32.69;101666.94;4378062;32;33768;-64
2022/03/11 08:27:36;;;;;;;10.85;4.65;;;;;;;2.22;31.68;101659.69;4376603;32;33794;-64
2022/03/11 08:30:05;;;;;;;10.73;4.45;;;;;;;2.54;31.27;101660.59;4377402;32;34098;-64
2022/03/11 08:32:33;;;;;;;10.85;4.40;;;;;;;2.69;30.95;101661.31;4378073;32;33410;-65
2022/03/11 08:35:01;;;;;;;10.52;4.43;;;;;;;2.45;31.92;101657.94;4376653;32;33179;-65
2022/03/11 08:37:36;;;;;;;9.10;4.43;;;;;;;1.70;32.26;101650.75;4375850;32;33657;-64
2022/03/11 08:40:06;;;;;;;11.85;4.62;;;;;;;1.99;31.74;101655.59;4377699;32;33867;-65
2022/03/11 08:42:35;;;;;;;10.93;4.47;;;;;;;2.65;30.47;101648.94;4361661;32;34061;-64
2022/03/11 08:45:07;;;;;;;8.40;3.53;;;;;;;2.19;30.55;101646.59;4375465;32;33746;-64
2022/03/11 08:47:34;;;;;;;8.55;3.97;;;;;;;2.03;30.17;101649.12;4364452;32;33922;-63
2022/03/11 08:50:03;;;;;;;8.57;4.10;;;;;;;2.50;29.48;101649.12;4376335;32;32524;-63
2022/03/11 08:52:31;;;;;;;9.82;4.65;;;;;;;2.73;29.85;101637.88;4377317;32;34198;-65
2022/03/11 08:54:58;;;;;;;9.52;4.40;;;;;;;3.42;29.04;101636.41;4378341;32;33662;-64
2022/03/11 08:57:26;;;;;;;9.68;4.57;;;;;;;3.86;28.06;101632.34;4376998;32;34460;-64
2022/03/11 08:59:59;;;;;;;9.65;4.00;;;;;;;3.68;27.91;101632.31;4365160;32;33482;-64
2022/03/11 09:02:27;;;;;;;8.73;3.90;;;;;;;3.83;27.29;101617.56;4361006;32;32895;-64
2022/03/11 09:04:55;;;;;;;7.43;3.70;;;;;;;3.43;28.60;101620.31;4362466;32;33107;-65
2022/03/11 09:07:28;;;;;;;8.82;4.15;;;;;;;3.72;27.67;101631.84;4377737;32;33444;-65
2022/03/11 09:09:56;;;;;;;7.65;3.90;;;;;;;4.01;26.96;101628.75;4376923;32;34710;-66
2022/03/11 09:12:24;;;;;;;9.35;4.00;;;;;;;4.27;27.04;101627.91;4377634;32;33443;-64
2022/03/11 09:14:56;;;;;;;8.63;3.97;;;;;;;4.24;27.10;101625.03;4374926;32;34621;-65
2022/03/11 09:17:23;;;;;;;8.10;3.67;;;;;;;4.44;26.58;101626.97;4376645;32;33830;-65
2022/03/11 09:19:52;;;;;;;11.55;4.95;;;;;;;5.16;25.65;101609.94;4375396;32;34106;-65
2022/03/11 09:22:41;;;;;;;6.70;3.78;;;;;;;4.66;26.25;101614.59;4364370;32;34387;-64
2022/03/11 09:25:09;;;;;;;8.38;3.90;;;;;;;4.77;26.19;101602.78;4377351;32;34451;-66
2022/03/11 09:27:38;;;;;;;7.35;3.62;;;;;;;5.08;25.72;101609.22;4377317;32;33999;-63
2022/03/11 09:30:07;;;;;;;8.95;4.22;;;;;;;5.48;25.03;101602.72;4377266;32;34057;-65
2022/03/11 09:32:34;;;;;;;8.95;4.00;;;;;;;5.70;28.23;101603.97;4377371;32;33284;-64
2022/03/11 09:35:02;;;;;;;8.93;4.53;;;;;;;6.19;24.69;101606.72;4375018;32;34421;-65
2022/03/11 09:37:29;;;;;;;11.05;4.28;;;;;;;6.34;24.04;101602.06;4376869;32;33693;-62
2022/03/11 09:39:57;;;;;;;10.38;4.80;;;;;;;6.83;24.12;101591.88;4375745;32;34719;-63
2022/03/11 09:42:24;;;;;;;9.57;4.97;;;;;;;6.49;24.02;101599.19;4377236;32;34277;-65
2022/03/11 09:44:54;;;;;;;13.00;7.37;;;;;;;6.81;24.14;101598.56;4376927;32;34057;-64
2022/03/11 09:47:22;;;;;;;7.72;3.60;;;;;;;6.55;23.25;101592.75;4374976;32;33806;-63
2022/03/11 09:49:50;;;;;;;8.23;4.28;;;;;;;6.73;24.95;101593.50;4374385;32;33535;-64
2022/03/11 09:52:20;;;;;;;9.60;3.78;;;;;;;6.92;22.79;101580.59;4376220;32;33137;-63
2022/03/11 09:54:47;;;;;;;8.75;3.30;;;;;;;7.53;33.57;101585.87;4377257;32;34052;-62
2022/03/11 09:57:22;;;;;;;8.25;3.47;;;;;;;7.95;24.33;101579.97;4376660;32;34731;-62
2022/03/11 09:59:50;;;;;;;9.48;4.20;;;;;;;8.33;22.70;101582.25;4375030;32;33976;-62
2022/03/11 10:02:24;;;;;;;7.45;3.72;;;;;;;8.68;21.74;101571.34;4375748;32;33380;-62
2022/03/11 10:04:54;;;;;;;8.40;4.00;;;;;;;8.84;24.26;101576.06;4376372;32;33740;-63
2022/03/11 10:07:41;;;;;;;7.90;4.05;;;;;;;8.80;21.25;101567.16;4361930;32;33930;-60
2022/03/11 10:10:15;;;;;;;8.88;4.50;;;;;;;8.75;21.62;101577.88;4376528;32;34570;-58
2022/03/11 10:13:03;;;;;;;9.80;4.10;;;;;;;8.82;20.64;101570.75;4376887;32;33842;-59
2022/03/11 10:15:30;;;;;;;12.25;4.25;;;;;;;9.40;20.04;101563.22;4376878;32;32650;-59
2022/03/11 10:18:02;;;;;;;7.87;3.72;;;;;;;8.33;20.62;101564.19;4374641;32;34667;-62
2022/03/11 10:20:31;;;;;;;10.20;4.25;;;;;;;7.76;21.22;101569.78;4374573;32;34550;-63
2022/03/11 10:22:58;;;;;;;8.35;3.97;;;;;;;8.73;20.82;101566.53;4373321;32;33574;-65
2022/03/11 10:25:30;;;;;;;8.38;3.80;;;;;;;8.67;20.49;101561.78;4376657;32;33335;-62
2022/03/11 10:28:02;;;;;;;7.62;3.50;;;;;;;9.23;20.09;101554.12;4362486;32;33689;-62
2022/03/11 10:30:38;;;;;;;8.45;3.50;;;;;;;9.22;19.37;101567.84;4374182;32;35137;-63
2022/03/11 10:33:11;;;;;;;11.45;3.78;;;;;;;9.79;19.00;101551.53;4375769;32;34328;-63
2022/03/11 10:35:43;;;;;;;7.18;3.80;;;;;;;9.78;29.19;101562.69;4370146;32;34008;-64
2022/03/11 10:38:17;;;;;;;8.25;4.25;;;;;;;9.07;20.04;101557.22;4361541;32;33411;-63
2022/03/11 10:40:58;;;;;;;8.60;3.70;;;;;;;9.50;20.66;101560.53;4376240;32;34563;-64
2022/03/11 10:43:32;;;;;;;9.73;3.95;;;;;;;9.94;22.27;101555.28;4373299;32;33225;-64
2022/03/11 10:46:02;;;;;;;24.48;4.50;;;;;;;10.40;19.47;101550.06;4375632;32;34462;-64
2022/03/11 10:48:51;;;;;;;8.43;3.70;;;;;;;10.41;19.29;101552.78;4375789;32;34335;-64
2022/03/11 10:51:20;;;;;;;7.68;3.65;;;;;;;10.45;21.31;101540.03;4375786;32;33890;-64
2022/03/11 10:53:49;;;;;;;10.27;3.60;;;;;;;10.67;18.23;101537.31;4376018;32;33549;-62
2022/03/11 10:56:29;;;;;;;6.18;3.75;;;;;;;10.41;18.14;101534.63;4359744;32;33807;-62
2022/03/11 10:58:57;;;;;;;9.90;3.70;;;;;;;10.65;17.88;101524.25;4381174;32;33690;-62
2022/03/11 11:01:39;;;;;;;8.73;4.05;;;;;;;10.78;17.52;101516.56;4376515;32;34219;-62
2022/03/11 11:04:10;;;;;;;7.30;3.62;;;;;;;10.50;17.55;101512.78;4378485;32;33747;-63
2022/03/11 11:06:38;;;;;;;6.53;3.17;;;;;;;10.64;17.35;101506.88;4361643;32;33854;-62
2022/03/11 11:09:08;;;;;;;8.75;3.83;;;;;;;10.64;16.98;101504.28;4371823;32;32297;-62
2022/03/11 11:11:36;;;;;;;8.90;3.78;;;;;;;10.78;17.44;101510.50;4375815;32;32578;-65
2022/03/11 11:14:07;;;;;;;9.18;3.65;;;;;;;11.27;16.50;101502.66;4372596;32;33340;-63
2022/03/11 11:16:39;;;;;;;8.95;4.40;;;;;;;10.45;17.58;101503.75;4373798;32;34544;-63
2022/03/11 11:19:10;;;;;;;7.97;3.37;;;;;;;10.17;17.55;101501.72;4373779;32;34749;-62
2022/03/11 11:21:40;;;;;;;7.75;3.97;;;;;;;10.55;17.25;101501.97;4377595;32;32509;-62
2022/03/11 11:24:13;;;;;;;8.13;3.30;;;;;;;11.08;16.56;101496.16;4364403;32;32017;-63
2022/03/11 11:26:45;;;;;;;9.23;3.95;;;;;;;10.95;17.09;101483.12;4378335;32;33870;-62
2022/03/11 11:29:15;;;;;;;12.98;5.35;;;;;;;10.30;17.30;101483.75;4380076;32;34708;-63
2022/03/11 11:31:44;;;;;;;7.80;4.18;;;;;;;10.56;17.17;101483.00;4381210;32;32769;-63